createdAt,value
2023-03-29T00:00:43.144Z,9.83
2023-03-29T00:03:13.915Z,5.50
2023-03-29T00:05:42.308Z,6.40
2023-03-29T00:08:14.289Z,6.90
2023-03-29T00:10:42.913Z,6.70
2023-03-29T00:13:10.928Z,6.27
2023-03-29T00:15:38.923Z,6.10
2023-03-29T00:18:07.042Z,5.60
2023-03-29T00:20:36.446Z,5.27
2023-03-29T00:23:04.453Z,7.73
2023-03-29T00:25:32.398Z,5.83
2023-03-29T00:28:00.329Z,6.27
2023-03-29T00:30:28.299Z,6.53
2023-03-29T00:32:56.498Z,5.53
2023-03-29T00:35:24.548Z,6.03
2023-03-29T00:37:53.864Z,4.90
2023-03-29T00:40:21.971Z,6.03
2023-03-29T00:42:49.946Z,6.37
2023-03-29T00:45:23.370Z,6.60
2023-03-29T00:47:53.819Z,7.17
2023-03-29T00:50:26.204Z,5.77
2023-03-29T00:53:00.906Z,5.60
2023-03-29T00:55:32.851Z,5.97
2023-03-29T00:58:02.628Z,5.40
2023-03-29T01:00:34.521Z,6.60
2023-03-29T01:03:06.980Z,6.83
2023-03-29T01:05:40.499Z,5.67
2023-03-29T01:08:18.350Z,6.57
2023-03-29T01:10:51.522Z,7.87
2023-03-29T01:13:22.314Z,4.73
2023-03-29T01:15:51.207Z,5.50
2023-03-29T01:18:19.726Z,5.07
2023-03-29T01:21:04.816Z,4.63
2023-03-29T01:23:46.342Z,5.53
2023-03-29T01:26:21.898Z,4.90
2023-03-29T01:28:56.786Z,6.60
2023-03-29T01:31:27.962Z,5.60
2023-03-29T01:34:02.434Z,7.07
2023-03-29T01:36:37.129Z,5.07
2023-03-29T01:39:07.273Z,5.70
2023-03-29T01:41:42.553Z,7.90
2023-03-29T01:44:18.332Z,5.53
2023-03-29T01:46:48.260Z,5.60
2023-03-29T01:49:23.534Z,7.03
2023-03-29T01:51:59.650Z,5.60
2023-03-29T01:54:31.854Z,6.50
2023-03-29T01:57:03.829Z,5.53
2023-03-29T01:59:36.755Z,6.10
2023-03-29T02:02:11.424Z,7.17
2023-03-29T02:04:45.780Z,4.87
2023-03-29T02:07:14.122Z,5.83
2023-03-29T02:09:43.387Z,6.20
2023-03-29T02:12:12.873Z,5.90
2023-03-29T02:14:42.154Z,8.40
2023-03-29T02:17:18.377Z,5.07
2023-03-29T02:19:50.338Z,6.80
2023-03-29T02:22:23.762Z,7.27
2023-03-29T02:24:56.579Z,4.93
2023-03-29T02:27:24.550Z,6.57
2023-03-29T02:29:53.961Z,6.00
2023-03-29T02:32:26.212Z,6.87
2023-03-29T02:34:58.973Z,6.57
2023-03-29T02:37:30.284Z,5.20
2023-03-29T02:40:00.062Z,5.70
2023-03-29T02:42:29.382Z,4.40
2023-03-29T02:45:01.608Z,5.30
2023-03-29T02:47:33.476Z,7.53
2023-03-29T02:50:01.964Z,6.03
2023-03-29T02:52:35.061Z,6.50
2023-03-29T02:55:06.301Z,4.90
2023-03-29T02:57:35.567Z,7.13
2023-03-29T03:00:09.765Z,7.73
2023-03-29T03:02:38.624Z,5.63
2023-03-29T03:05:08.292Z,5.53
2023-03-29T03:07:36.219Z,4.67
2023-03-29T03:10:04.901Z,4.17
2023-03-29T03:12:32.919Z,5.03
2023-03-29T03:15:00.887Z,5.53
2023-03-29T03:17:30.200Z,4.13
2023-03-29T03:19:58.163Z,6.03
2023-03-29T03:22:26.355Z,6.40
2023-03-29T03:24:54.346Z,5.40
2023-03-29T03:27:22.405Z,4.10
2023-03-29T03:29:50.458Z,16.60
2023-03-29T03:32:18.597Z,6.37
2023-03-29T03:34:47.834Z,4.63
2023-03-29T03:37:15.762Z,6.13
2023-03-29T03:39:43.868Z,5.70
2023-03-29T03:42:12.050Z,7.27
2023-03-29T03:44:40.301Z,6.40
2023-03-29T03:47:08.361Z,7.53
2023-03-29T03:49:36.652Z,4.30
2023-03-29T03:52:06.507Z,5.03
2023-03-29T03:54:34.458Z,6.07
2023-03-29T03:57:02.453Z,6.13
2023-03-29T03:59:30.462Z,6.20
2023-03-29T04:01:58.503Z,6.00
2023-03-29T04:04:27.052Z,5.83
2023-03-29T04:07:02.413Z,6.27
2023-03-29T04:09:32.528Z,5.33
2023-03-29T04:12:02.464Z,5.17
2023-03-29T04:14:32.140Z,5.07
2023-03-29T04:17:00.120Z,7.47
2023-03-29T04:19:28.082Z,4.80
2023-03-29T04:21:56.010Z,5.73
2023-03-29T04:24:25.135Z,6.23
2023-03-29T04:26:54.453Z,5.73
2023-03-29T04:29:22.446Z,9.13
2023-03-29T04:31:50.490Z,7.50
2023-03-29T04:34:18.570Z,6.40
2023-03-29T04:36:46.486Z,9.00
2023-03-29T04:39:14.580Z,5.43
2023-03-29T04:41:42.615Z,5.90
2023-03-29T04:44:12.204Z,5.23
2023-03-29T04:46:40.320Z,7.00
2023-03-29T04:49:08.436Z,5.93
2023-03-29T04:51:36.468Z,8.13
2023-03-29T04:54:04.417Z,6.83
2023-03-29T04:56:32.313Z,6.30
2023-03-29T04:59:00.273Z,8.00
2023-03-29T05:01:29.951Z,5.70
2023-03-29T05:03:58.054Z,5.77
2023-03-29T05:06:26.356Z,6.50
2023-03-29T05:08:54.343Z,7.20
2023-03-29T05:11:25.102Z,7.03
2023-03-29T05:13:53.064Z,8.33
2023-03-29T05:16:21.048Z,7.57
2023-03-29T05:18:51.718Z,7.80
2023-03-29T05:21:20.548Z,7.90
2023-03-29T05:23:48.870Z,9.57
2023-03-29T05:26:16.757Z,8.10
2023-03-29T05:28:45.008Z,10.40
2023-03-29T05:31:16.185Z,8.20
2023-03-29T05:33:45.079Z,9.10
2023-03-29T05:36:16.340Z,8.20
2023-03-29T05:38:46.619Z,8.60
2023-03-29T05:41:15.777Z,9.17
2023-03-29T05:43:43.835Z,10.40
2023-03-29T05:46:12.604Z,10.30
2023-03-29T05:48:40.835Z,10.07
2023-03-29T05:51:09.417Z,9.20
2023-03-29T05:53:38.881Z,9.83
2023-03-29T05:56:08.813Z,12.50
2023-03-29T05:58:38.196Z,10.17
2023-03-29T06:01:11.719Z,9.13
2023-03-29T06:03:39.823Z,9.83
2023-03-29T06:06:09.473Z,11.97
2023-03-29T06:08:38.810Z,10.97
2023-03-29T06:11:09.097Z,10.00
2023-03-29T06:13:38.748Z,11.00
2023-03-29T06:16:07.526Z,12.43
2023-03-29T06:18:36.580Z,10.70
2023-03-29T06:21:04.998Z,11.60
2023-03-29T06:23:33.276Z,11.10
2023-03-29T06:26:02.734Z,9.53
2023-03-29T06:28:30.805Z,10.83
2023-03-29T06:31:02.926Z,10.47
2023-03-29T06:33:32.444Z,10.40
2023-03-29T06:36:00.480Z,11.20
2023-03-29T06:38:28.722Z,11.60
2023-03-29T06:41:04.168Z,11.13
2023-03-29T06:43:33.400Z,10.60
2023-03-29T06:46:01.904Z,12.30
2023-03-29T06:48:30.436Z,10.33
2023-03-29T06:50:58.573Z,12.97
2023-03-29T06:53:28.079Z,14.50
2023-03-29T06:55:56.349Z,11.00
2023-03-29T06:58:27.817Z,10.30
2023-03-29T07:01:02.032Z,13.20
2023-03-29T07:03:30.599Z,11.27
2023-03-29T07:06:03.596Z,12.23
2023-03-29T07:08:31.963Z,9.70
2023-03-29T07:11:01.394Z,12.23
2023-03-29T07:13:32.904Z,11.90
2023-03-29T07:16:01.001Z,10.40
2023-03-29T07:18:29.019Z,9.17
2023-03-29T07:20:57.317Z,12.97
2023-03-29T07:23:25.292Z,9.37
2023-03-29T07:25:54.049Z,9.47
2023-03-29T07:28:22.073Z,9.67
2023-03-29T07:30:51.614Z,9.87
2023-03-29T07:33:20.126Z,8.93
2023-03-29T07:35:48.674Z,8.17
2023-03-29T07:38:16.725Z,9.77
2023-03-29T07:40:44.747Z,9.57
2023-03-29T07:43:12.716Z,8.77
2023-03-29T07:45:42.321Z,8.63
2023-03-29T07:48:12.075Z,8.50
2023-03-29T07:50:40.268Z,8.50
2023-03-29T07:53:09.074Z,8.90
2023-03-29T07:55:37.890Z,8.07
2023-03-29T07:58:06.124Z,8.77
2023-03-29T08:00:34.139Z,11.93
2023-03-29T08:03:03.769Z,8.87
2023-03-29T08:05:40.549Z,7.87
2023-03-29T08:08:10.149Z,11.03
2023-03-29T08:10:39.743Z,8.10
2023-03-29T08:13:09.923Z,8.00
2023-03-29T08:15:39.350Z,7.70
2023-03-29T08:18:08.028Z,9.40
2023-03-29T08:20:37.631Z,8.97
2023-03-29T08:23:06.322Z,11.77
2023-03-29T08:25:35.137Z,7.97
2023-03-29T08:28:03.084Z,8.20
2023-03-29T08:30:31.228Z,8.37
2023-03-29T08:32:59.260Z,8.90
2023-03-29T08:35:27.685Z,6.73
2023-03-29T08:37:57.032Z,11.13
2023-03-29T08:40:27.989Z,8.70
2023-03-29T08:43:13.357Z,7.00
2023-03-29T08:45:50.908Z,7.00
2023-03-29T08:48:28.423Z,6.17
2023-03-29T08:51:01.714Z,6.77
2023-03-29T08:53:36.355Z,6.77
2023-03-29T08:56:08.736Z,7.50
2023-03-29T08:58:38.784Z,7.03
2023-03-29T09:01:08.704Z,7.60
2023-03-29T09:03:41.733Z,7.27
2023-03-29T09:06:12.579Z,7.10
2023-03-29T09:08:45.010Z,6.90
2023-03-29T09:11:27.510Z,10.97
2023-03-29T09:14:08.622Z,5.87
2023-03-29T09:16:43.235Z,7.33
2023-03-29T09:19:25.123Z,7.60
2023-03-29T09:22:01.869Z,7.87
2023-03-29T09:24:42.644Z,6.63
2023-03-29T09:27:14.395Z,8.33
2023-03-29T09:29:53.407Z,7.20
2023-03-29T09:32:23.804Z,7.63
2023-03-29T09:35:00.894Z,8.50
2023-03-29T09:37:33.674Z,6.80
2023-03-29T09:40:11.074Z,8.07
2023-03-29T09:42:40.604Z,7.37
2023-03-29T09:45:09.943Z,7.03
2023-03-29T09:47:41.149Z,6.57
2023-03-29T09:50:29.492Z,8.10
2023-03-29T09:52:59.558Z,6.80
2023-03-29T09:55:32.342Z,6.63
2023-03-29T09:58:02.870Z,8.03
2023-03-29T10:00:30.984Z,6.87
2023-03-29T10:03:00.151Z,7.10
2023-03-29T10:05:32.550Z,7.13
2023-03-29T10:08:02.246Z,8.60
2023-03-29T10:10:34.440Z,6.60
2023-03-29T10:13:06.811Z,6.70
2023-03-29T10:15:35.029Z,6.97
2023-03-29T10:18:06.725Z,7.13
2023-03-29T10:20:36.913Z,8.43
2023-03-29T10:23:07.885Z,6.93
2023-03-29T10:25:42.653Z,11.17
2023-03-29T10:28:17.544Z,8.13
2023-03-29T10:30:48.656Z,8.80
2023-03-29T10:33:19.863Z,6.43
2023-03-29T10:35:49.323Z,7.83
2023-03-29T10:38:20.336Z,7.93
2023-03-29T10:40:51.740Z,7.93
2023-03-29T10:43:24.547Z,6.83
2023-03-29T10:45:54.512Z,7.23
2023-03-29T10:48:26.597Z,7.20
2023-03-29T10:50:54.570Z,8.03
2023-03-29T10:53:26.648Z,7.90
2023-03-29T10:56:08.026Z,7.83
2023-03-29T10:58:47.973Z,7.10
2023-03-29T11:01:22.440Z,8.53
2023-03-29T11:04:12.043Z,7.83
2023-03-29T11:06:44.690Z,7.43
2023-03-29T11:09:24.093Z,8.00
2023-03-29T11:12:15.191Z,8.97
2023-03-29T11:14:54.904Z,9.03
2023-03-29T11:17:35.786Z,12.07
2023-03-29T11:20:20.657Z,8.83
2023-03-29T11:22:53.602Z,8.43
2023-03-29T11:25:32.166Z,8.50
2023-03-29T11:28:08.199Z,8.90
2023-03-29T11:30:42.221Z,9.60
2023-03-29T11:33:20.768Z,8.20
2023-03-29T11:35:56.205Z,10.23
2023-03-29T11:38:30.555Z,8.70
2023-03-29T11:41:03.478Z,9.57
2023-03-29T11:43:36.927Z,10.30
2023-03-29T11:46:13.038Z,8.93
2023-03-29T11:48:47.505Z,9.60
2023-03-29T11:51:22.572Z,9.00
2023-03-29T11:53:57.759Z,9.60
2023-03-29T11:56:30.412Z,12.13
2023-03-29T11:59:05.887Z,10.43
2023-03-29T12:01:37.779Z,9.20
2023-03-29T12:04:11.330Z,9.80
2023-03-29T12:06:47.522Z,8.77
2023-03-29T12:09:26.602Z,9.70
2023-03-29T12:12:02.996Z,9.77
2023-03-29T12:14:46.457Z,10.13
2023-03-29T12:17:19.958Z,9.93
2023-03-29T12:19:54.370Z,9.30
2023-03-29T12:22:23.548Z,10.00
2023-03-29T12:24:54.761Z,10.10
2023-03-29T12:27:28.745Z,10.53
2023-03-29T12:30:23.930Z,10.37
2023-03-29T12:33:23.602Z,10.57
2023-03-29T12:36:06.417Z,10.30
2023-03-29T12:38:34.976Z,10.80
2023-03-29T12:41:11.152Z,16.50
2023-03-29T12:43:41.218Z,11.50
2023-03-29T12:46:15.590Z,10.67
2023-03-29T12:48:45.442Z,10.50
2023-03-29T12:51:16.223Z,11.63
2023-03-29T12:53:46.468Z,10.83
2023-03-29T12:56:17.328Z,11.13
2023-03-29T12:58:54.787Z,10.50
2023-03-29T13:01:28.261Z,11.37
2023-03-29T13:04:18.699Z,11.03
2023-03-29T13:07:03.150Z,11.37
2023-03-29T13:09:35.490Z,11.93
2023-03-29T13:12:14.460Z,10.70
2023-03-29T13:14:44.305Z,12.87
2023-03-29T13:17:25.659Z,11.00
2023-03-29T13:20:14.876Z,12.13
2023-03-29T13:22:54.867Z,10.50
2023-03-29T13:25:41.898Z,9.40
2023-03-29T13:28:17.587Z,11.03
2023-03-29T13:30:52.573Z,10.67
2023-03-29T13:33:52.485Z,10.13
2023-03-29T13:36:35.656Z,10.70
2023-03-29T13:39:07.574Z,10.00
2023-03-29T13:41:48.308Z,10.27
2023-03-29T13:44:30.165Z,10.23
2023-03-29T13:47:16.290Z,10.47
2023-03-29T13:49:56.920Z,10.83
2023-03-29T13:52:29.650Z,10.13
2023-03-29T13:55:02.356Z,10.57
2023-03-29T13:57:37.221Z,9.90
2023-03-29T14:00:13.583Z,10.67
2023-03-29T14:02:45.555Z,10.17
2023-03-29T14:05:20.608Z,10.30
2023-03-29T14:07:51.112Z,9.90
2023-03-29T14:10:22.372Z,10.00
2023-03-29T14:12:51.018Z,10.20
2023-03-29T14:15:25.148Z,10.20
2023-03-29T14:18:00.770Z,10.27
2023-03-29T14:20:32.332Z,10.60
2023-03-29T14:23:00.392Z,10.73
2023-03-29T14:25:30.424Z,10.60
2023-03-29T14:27:58.364Z,10.97
2023-03-29T14:30:29.072Z,10.73
2023-03-29T14:32:57.415Z,11.20
2023-03-29T14:35:33.444Z,10.47
2023-03-29T14:38:03.556Z,10.53
2023-03-29T14:40:32.546Z,10.23
2023-03-29T14:43:05.284Z,10.77
2023-03-29T14:45:33.559Z,9.87
2023-03-29T14:48:02.017Z,9.53
2023-03-29T14:50:32.318Z,10.53
2023-03-29T14:53:01.436Z,9.67
2023-03-29T14:55:30.915Z,10.50
2023-03-29T14:58:00.180Z,10.47
2023-03-29T15:00:30.803Z,9.60
2023-03-29T15:03:00.667Z,10.43
2023-03-29T15:05:39.684Z,10.30
2023-03-29T15:08:10.340Z,10.40
2023-03-29T15:10:41.792Z,9.87
2023-03-29T15:13:19.842Z,11.10
2023-03-29T15:15:48.192Z,11.70
2023-03-29T15:18:17.882Z,11.10
2023-03-29T15:20:47.210Z,11.43
2023-03-29T15:23:24.239Z,11.40
2023-03-29T15:25:58.302Z,12.73
2023-03-29T15:28:30.668Z,12.00
2023-03-29T15:31:07.664Z,11.37
2023-03-29T15:33:37.970Z,11.20
2023-03-29T15:36:09.897Z,11.73
2023-03-29T15:41:10.545Z,12.50
2023-03-29T15:43:38.482Z,11.63
2023-03-29T15:46:06.719Z,12.80
2023-03-29T15:48:34.813Z,11.83
2023-03-29T15:51:05.699Z,11.33
2023-03-29T15:53:36.756Z,12.67
2023-03-29T15:56:08.018Z,12.50
2023-03-29T15:58:36.860Z,12.30
2023-03-29T16:01:13.456Z,13.47
2023-03-29T16:03:41.604Z,12.50
2023-03-29T16:06:12.531Z,13.03
2023-03-29T16:08:42.035Z,12.70
2023-03-29T16:11:10.135Z,12.80
2023-03-29T16:13:38.105Z,13.30
2023-03-29T16:16:07.221Z,16.83
2023-03-29T16:18:35.709Z,12.63
2023-03-29T16:21:03.704Z,12.90
2023-03-29T16:23:31.865Z,12.73
2023-03-29T16:26:01.385Z,12.10
2023-03-29T16:28:29.526Z,12.23
2023-03-29T16:30:57.444Z,13.00
2023-03-29T16:33:25.424Z,13.27
2023-03-29T16:35:53.402Z,12.90
2023-03-29T16:38:21.756Z,13.73
2023-03-29T16:40:49.700Z,13.63
2023-03-29T16:43:18.996Z,14.20
2023-03-29T16:45:46.946Z,13.07
2023-03-29T16:48:17.187Z,12.60
2023-03-29T16:50:45.345Z,13.33
2023-03-29T16:53:13.301Z,14.07
2023-03-29T16:55:41.188Z,14.23
2023-03-29T16:58:09.526Z,15.00
2023-03-29T17:00:38.953Z,14.27
2023-03-29T17:03:07.894Z,14.83
2023-03-29T17:05:39.914Z,15.87
2023-03-29T17:08:09.740Z,14.27
2023-03-29T17:10:38.016Z,15.10
2023-03-29T17:13:05.931Z,15.03
2023-03-29T17:15:34.105Z,17.10
2023-03-29T17:18:04.411Z,15.17
2023-03-29T17:20:32.609Z,15.00
2023-03-29T17:23:00.542Z,16.50
2023-03-29T17:25:28.533Z,15.27
2023-03-29T17:27:57.162Z,15.63
2023-03-29T17:30:25.068Z,16.13
2023-03-29T17:32:53.605Z,15.57
2023-03-29T17:35:22.966Z,16.23
2023-03-29T17:37:50.886Z,14.90
2023-03-29T17:40:18.939Z,16.10
2023-03-29T17:42:48.198Z,16.07
2023-03-29T17:45:17.182Z,15.93
2023-03-29T17:47:45.657Z,16.70
2023-03-29T17:50:14.434Z,15.83
2023-03-29T17:52:43.770Z,15.27
2023-03-29T17:55:13.566Z,16.23
2023-03-29T17:57:42.046Z,16.20
2023-03-29T18:00:12.343Z,15.07
2023-03-29T18:02:41.468Z,16.33
2023-03-29T18:05:10.477Z,16.13
2023-03-29T18:07:38.800Z,15.80
2023-03-29T18:10:09.222Z,15.57
2023-03-29T18:12:37.313Z,17.50
2023-03-29T18:15:06.286Z,16.57
2023-03-29T18:17:35.576Z,16.47
2023-03-29T18:20:09.803Z,17.30
2023-03-29T18:22:38.007Z,16.47
2023-03-29T18:25:09.398Z,16.73
2023-03-29T18:27:37.733Z,17.73
2023-03-29T18:30:08.454Z,15.27
2023-03-29T18:32:36.616Z,15.47
2023-03-29T18:35:05.028Z,15.17
2023-03-29T18:37:33.235Z,14.97
2023-03-29T18:40:01.260Z,16.00
2023-03-29T18:42:30.710Z,15.97
2023-03-29T18:44:58.734Z,16.30
2023-03-29T18:47:27.166Z,17.17
2023-03-29T18:49:55.165Z,15.80
2023-03-29T18:52:23.309Z,15.90
2023-03-29T18:54:51.401Z,17.07
2023-03-29T18:57:19.537Z,15.43
2023-03-29T18:59:48.963Z,17.40
2023-03-29T19:02:16.944Z,17.17
2023-03-29T19:04:44.948Z,16.83
2023-03-29T19:07:12.947Z,17.43
2023-03-29T19:09:41.598Z,17.33
2023-03-29T19:12:09.766Z,17.50
2023-03-29T19:14:37.702Z,16.63
2023-03-29T19:17:06.960Z,16.17
2023-03-29T19:19:34.886Z,17.10
2023-03-29T19:22:03.094Z,16.30
2023-03-29T19:24:31.140Z,16.20
2023-03-29T19:26:59.105Z,16.90
2023-03-29T19:29:27.165Z,16.90
2023-03-29T19:31:56.933Z,16.87
2023-03-29T19:34:27.055Z,17.70
2023-03-29T19:36:55.189Z,18.20
2023-03-29T19:39:24.947Z,17.67
2023-03-29T19:41:52.874Z,18.23
2023-03-29T19:44:23.458Z,18.93
2023-03-29T19:46:51.520Z,18.20
2023-03-29T19:49:19.654Z,17.77
2023-03-29T19:51:49.207Z,18.03
2023-03-29T19:54:17.284Z,19.60
2023-03-29T19:56:45.383Z,18.80
2023-03-29T19:59:15.094Z,18.80
2023-03-29T20:01:50.639Z,18.03
2023-03-29T20:04:18.880Z,18.37
2023-03-29T20:06:48.243Z,18.43
2023-03-29T20:09:16.737Z,18.60
2023-03-29T20:11:46.593Z,18.70
2023-03-29T20:14:14.898Z,18.43
2023-03-29T20:16:43.974Z,17.47
2023-03-29T20:19:14.036Z,18.43
2023-03-29T20:21:42.139Z,18.90
2023-03-29T20:24:12.072Z,17.43
2023-03-29T20:26:40.036Z,18.40
2023-03-29T20:29:08.007Z,18.10
2023-03-29T20:31:35.991Z,17.23
2023-03-29T20:34:03.948Z,19.27
2023-03-29T20:36:32.010Z,17.60
2023-03-29T20:39:01.149Z,18.60
2023-03-29T20:41:31.345Z,18.20
2023-03-29T20:43:59.950Z,17.00
2023-03-29T20:46:34.126Z,18.27
2023-03-29T20:49:02.678Z,18.70
2023-03-29T20:51:31.991Z,20.37
2023-03-29T20:54:04.369Z,18.17
2023-03-29T20:56:35.569Z,19.43
2023-03-29T20:59:04.025Z,19.10
2023-03-29T21:01:32.103Z,18.37
2023-03-29T21:04:00.256Z,19.40
2023-03-29T21:06:28.303Z,19.50
2023-03-29T21:08:57.355Z,18.47
2023-03-29T21:11:25.631Z,17.27
2023-03-29T21:13:55.116Z,18.80
2023-03-29T21:16:25.189Z,17.70
2023-03-29T21:18:54.088Z,18.53
2023-03-29T21:21:22.763Z,19.27
2023-03-29T21:23:50.760Z,18.20
2023-03-29T21:26:18.814Z,19.10
2023-03-29T21:28:48.444Z,19.50
2023-03-29T21:31:17.906Z,19.77
2023-03-29T21:33:46.190Z,18.93
2023-03-29T21:36:14.153Z,20.63
2023-03-29T21:38:42.090Z,19.50
2023-03-29T21:41:11.982Z,19.23
2023-03-29T21:43:40.013Z,20.30
2023-03-29T21:46:08.323Z,19.23
2023-03-29T21:48:38.120Z,18.40
2023-03-29T21:51:07.007Z,19.30
2023-03-29T21:53:35.028Z,20.23
2023-03-29T21:56:03.157Z,20.07
2023-03-29T21:58:31.127Z,20.27
2023-03-29T22:00:59.138Z,19.00
2023-03-29T22:03:27.469Z,20.00
2023-03-29T22:06:02.752Z,18.00
2023-03-29T22:08:31.384Z,20.03
2023-03-29T22:10:59.449Z,19.70
2023-03-29T22:13:29.598Z,19.67
2023-03-29T22:15:59.069Z,19.27
2023-03-29T22:18:27.775Z,19.80
2023-03-29T22:20:55.873Z,19.37
2023-03-29T22:23:25.679Z,21.60
2023-03-29T22:25:53.635Z,19.73
2023-03-29T22:28:21.615Z,20.87
2023-03-29T22:30:49.513Z,19.20
2023-03-29T22:33:17.439Z,19.77
2023-03-29T22:35:45.551Z,19.53
2023-03-29T22:38:13.533Z,19.30
2023-03-29T22:40:42.849Z,20.37
2023-03-29T22:43:11.010Z,20.03
2023-03-29T22:45:38.953Z,20.83
2023-03-29T22:48:07.278Z,19.07
2023-03-29T22:50:35.283Z,21.57
2023-03-29T22:53:03.266Z,21.23
2023-03-29T22:55:31.184Z,19.37
2023-03-29T22:58:00.579Z,19.87
2023-03-29T23:00:28.539Z,20.00
2023-03-29T23:02:56.486Z,20.43
2023-03-29T23:05:24.571Z,21.57
2023-03-29T23:07:52.524Z,21.23
2023-03-29T23:10:20.495Z,22.33
2023-03-29T23:12:49.610Z,20.60
2023-03-29T23:15:22.672Z,20.03
2023-03-29T23:17:50.723Z,21.97
2023-03-29T23:20:20.556Z,21.60
2023-03-29T23:22:48.472Z,22.60
2023-03-29T23:25:16.517Z,22.60
2023-03-29T23:27:44.455Z,21.30
2023-03-29T23:30:12.898Z,20.30
2023-03-29T23:32:42.209Z,21.50
2023-03-29T23:35:10.556Z,22.03
2023-03-29T23:37:39.347Z,22.10
2023-03-29T23:40:11.618Z,20.60
2023-03-29T23:42:40.065Z,21.17
2023-03-29T23:45:09.824Z,20.50
2023-03-29T23:47:37.983Z,21.73
2023-03-29T23:50:09.434Z,21.00
2023-03-29T23:52:38.002Z,19.47
2023-03-29T23:55:06.703Z,20.00
2023-03-29T23:57:35.142Z,20.60
